Time;durP1;ratioP1;P1;durP2;ratioP2;P2;SDS_P1;SDS_P2;PMS_P1;PMS_P2;Temp;Humidity;BMP_temperature;BMP_pressure;BME280_temperature;BME280_humidity;BME280_pressure;Samples;Min_cycle;Max_cycle;Signal;HPM_P1;HPM_P2
2021/12/18 00:00:36;;;;;;;11.80;5.32;;;3.00;1.00;;;;;;5095299;28;20209;-75
2021/12/18 00:03:06;;;;;;;8.38;5.45;;;3.00;1.00;;;;;;5095656;28;20147;-76
2021/12/18 00:05:34;;;;;;;7.43;5.28;;;3.00;1.00;;;;;;5110153;28;20219;-75
2021/12/18 00:08:00;;;;;;;10.55;6.25;;;3.00;1.00;;;;;;5103131;28;20187;-75
2021/12/18 00:10:29;;;;;;;9.57;6.03;;;2.90;1.00;;;;;;5073912;28;20178;-75
2021/12/18 00:12:55;;;;;;;8.18;5.80;;;2.90;1.00;;;;;;5082728;28;20412;-75
2021/12/18 00:15:24;;;;;;;9.20;5.30;;;2.90;1.00;;;;;;5088194;28;20235;-76
2021/12/18 00:17:52;;;;;;;11.05;6.03;;;2.90;1.00;;;;;;5090499;28;20499;-76
2021/12/18 00:20:19;;;;;;;13.77;5.63;;;2.90;1.00;;;;;;5079677;28;20249;-75
2021/12/18 00:22:46;;;;;;;6.47;4.72;;;2.90;1.00;;;;;;5083005;28;20633;-75
2021/12/18 00:25:12;;;;;;;11.00;5.43;;;2.80;1.00;;;;;;5092213;28;20166;-75
2021/12/18 00:27:38;;;;;;;9.27;5.90;;;2.80;1.00;;;;;;5074857;28;20152;-75
2021/12/18 00:30:23;;;;;;;6.57;5.10;;;2.80;1.00;;;;;;5079409;28;20511;-75
2021/12/18 00:32:49;;;;;;;9.10;5.38;;;2.70;1.00;;;;;;5074301;28;20183;-75
2021/12/18 00:35:17;;;;;;;12.50;5.87;;;2.70;1.00;;;;;;5088034;28;20235;-75
2021/12/18 00:37:46;;;;;;;10.48;5.90;;;2.70;1.00;;;;;;5086083;28;20439;-75
2021/12/18 00:40:24;;;;;;;7.93;5.22;;;2.60;1.00;;;;;;5075493;28;20268;-75
2021/12/18 00:43:20;;;;;;;26.50;6.45;;;2.70;1.00;;;;;;5086439;28;20178;-75
2021/12/18 00:45:58;;;;;;;10.23;5.88;;;2.60;1.00;;;;;;5083302;28;20289;-76
2021/12/18 00:48:25;;;;;;;12.90;7.18;;;2.70;1.00;;;;;;5087300;28;20182;-76
2021/12/18 00:50:51;;;;;;;7.55;5.50;;;2.70;1.00;;;;;;5073894;28;20191;-76
2021/12/18 00:53:23;;;;;;;13.23;6.45;;;2.70;1.00;;;;;;5086243;28;20239;-76
2021/12/18 00:55:51;;;;;;;10.48;5.78;;;2.70;1.00;;;;;;5087851;28;20224;-75
2021/12/18 00:58:28;;;;;;;16.35;5.93;;;2.70;1.00;;;;;;5079898;28;20257;-75
2021/12/18 01:00:58;;;;;;;13.10;6.15;;;2.70;1.00;;;;;;5086095;28;20702;-75
2021/12/18 01:03:28;;;;;;;9.95;5.90;;;2.70;1.00;;;;;;5083302;28;20625;-75
2021/12/18 01:05:58;;;;;;;7.35;4.82;;;2.70;1.00;;;;;;5092211;28;20531;-76
2021/12/18 01:08:35;;;;;;;8.05;5.63;;;2.70;1.00;;;;;;5085644;28;20636;-75
2021/12/18 01:13:44;;;;;;;9.60;5.88;;;2.60;1.00;;;;;;5074954;28;20232;-75
2021/12/18 01:16:18;;;;;;;13.13;6.07;;;2.60;1.00;;;;;;5085042;28;20182;-75
2021/12/18 01:24:13;;;;;;;10.23;6.35;;;2.60;1.00;;;;;;5084118;28;20228;-75
2021/12/18 01:26:52;;;;;;;9.50;5.57;;;2.60;1.00;;;;;;5073936;28;20163;-75
2021/12/18 01:29:18;;;;;;;10.40;5.50;;;2.60;1.00;;;;;;5079658;28;20433;-75
2021/12/18 01:31:44;;;;;;;11.43;5.83;;;2.50;1.00;;;;;;5086119;28;20526;-75
2021/12/18 01:34:34;;;;;;;13.30;5.20;;;2.50;1.00;;;;;;5072577;28;20557;-75
2021/12/18 01:37:00;;;;;;;19.15;5.45;;;2.50;1.00;;;;;;5073745;28;20194;-75
2021/12/18 01:39:47;;;;;;;8.57;4.90;;;2.50;1.00;;;;;;5073675;28;20195;-75
2021/12/18 01:45:10;;;;;;;7.93;5.50;;;2.40;1.00;;;;;;5077514;28;20170;-75
2021/12/18 01:53:20;;;;;;;8.35;5.57;;;2.40;1.00;;;;;;5080846;28;20182;-75
2021/12/18 01:55:52;;;;;;;10.95;5.80;;;2.40;1.00;;;;;;5080834;28;20262;-75
2021/12/18 01:58:22;;;;;;;13.00;7.13;;;2.40;1.00;;;;;;5088931;28;20192;-75
2021/12/18 02:00:50;;;;;;;13.00;6.38;;;2.50;1.00;;;;;;5074274;28;20191;-75
2021/12/18 02:03:16;;;;;;;13.40;6.05;;;2.50;1.00;;;;;;5075865;28;20242;-75
2021/12/18 02:05:58;;;;;;;16.20;6.63;;;2.60;1.00;;;;;;5076884;28;20269;-75
2021/12/18 02:08:32;;;;;;;11.35;5.97;;;2.60;1.00;;;;;;5077186;28;20186;-75
2021/12/18 02:11:17;;;;;;;15.63;6.15;;;2.60;1.00;;;;;;5091354;28;20189;-75
2021/12/18 02:22:00;;;;;;;15.27;6.32;;;2.60;1.00;;;;;;5090430;28;20195;-75
2021/12/18 02:24:29;;;;;;;12.90;6.25;;;2.60;1.00;;;;;;5077017;28;20242;-76
2021/12/18 02:26:55;;;;;;;15.18;6.18;;;2.60;1.00;;;;;;5084379;28;20324;-75
2021/12/18 02:29:22;;;;;;;7.60;5.53;;;2.60;1.00;;;;;;5076951;28;20186;-75
2021/12/18 02:31:52;;;;;;;11.73;5.93;;;2.60;1.00;;;;;;5076670;28;20610;-75
2021/12/18 02:34:28;;;;;;;8.20;5.45;;;2.50;1.00;;;;;;5076502;28;20202;-75
2021/12/18 02:37:29;;;;;;;14.07;7.50;;;2.50;1.00;;;;;;5082207;28;20727;-75
2021/12/18 02:42:41;;;;;;;10.50;6.78;;;2.40;1.00;;;;;;5077066;28;20156;-76
2021/12/18 02:45:28;;;;;;;8.23;5.60;;;2.40;1.00;;;;;;5090233;28;20179;-75
2021/12/18 02:48:10;;;;;;;12.88;5.95;;;2.40;1.00;;;;;;5090019;28;20189;-75
2021/12/18 02:51:11;;;;;;;10.90;5.95;;;2.40;1.00;;;;;;5084410;28;20171;-75
2021/12/18 02:53:41;;;;;;;20.13;6.10;;;2.40;1.00;;;;;;5076428;28;20238;-74
2021/12/18 02:56:10;;;;;;;6.60;5.00;;;2.40;1.00;;;;;;5076506;28;20250;-75
2021/12/18 02:58:38;;;;;;;6.88;4.85;;;2.40;1.00;;;;;;5080215;28;20187;-75
2021/12/18 03:01:24;;;;;;;8.85;5.22;;;2.40;1.00;;;;;;5089958;28;20251;-75
2021/12/18 03:04:01;;;;;;;6.25;5.20;;;2.30;1.00;;;;;;5075753;28;20507;-75
2021/12/18 03:06:45;;;;;;;14.13;6.45;;;2.30;1.00;;;;;;5076429;28;20153;-75
2021/12/18 03:23:12;;;;;;;13.85;7.25;;;2.50;1.00;;;;;;5053607;28;20183;-76
2021/12/18 03:25:38;;;;;;;10.50;7.10;;;2.60;1.00;;;;;;5053604;28;20282;-75
2021/12/18 03:28:07;;;;;;;20.23;8.00;;;2.60;1.00;;;;;;5054194;28;20182;-75
2021/12/18 03:30:36;;;;;;;18.42;9.20;;;2.70;1.00;;;;;;5053245;28;20187;-75
2021/12/18 03:33:05;;;;;;;10.43;7.18;;;2.70;1.00;;;;;;5053624;28;20200;-75
2021/12/18 03:35:34;;;;;;;16.05;8.10;;;2.80;1.00;;;;;;5042132;28;20395;-75
2021/12/18 03:38:00;;;;;;;17.55;8.93;;;2.90;1.00;;;;;;5052353;28;20204;-76
2021/12/18 03:40:27;;;;;;;16.63;8.07;;;2.90;1.00;;;;;;5052461;28;20207;-75
2021/12/18 03:42:58;;;;;;;9.95;7.18;;;3.00;1.00;;;;;;5052652;28;20180;-75
2021/12/18 03:45:29;;;;;;;15.50;8.40;;;3.00;1.00;;;;;;5052047;28;20197;-75
2021/12/18 03:48:11;;;;;;;11.60;7.32;;;3.00;1.00;;;;;;5052189;28;20252;-75
2021/12/18 03:50:36;;;;;;;18.48;9.15;;;3.00;1.00;;;;;;5052907;28;20825;-75
2021/12/18 03:53:02;;;;;;;16.77;8.23;;;3.10;1.00;;;;;;5092471;28;20214;-75
2021/12/18 03:55:28;;;;;;;16.33;8.10;;;3.10;1.00;;;;;;5088518;28;20236;-75
2021/12/18 03:58:10;;;;;;;13.63;7.50;;;3.10;1.00;;;;;;5090298;28;20167;-75
2021/12/18 04:00:41;;;;;;;12.57;7.80;;;3.10;1.00;;;;;;5087655;28;20202;-75
2021/12/18 04:03:10;;;;;;;16.33;7.07;;;3.10;1.00;;;;;;5091010;28;20540;-75
2021/12/18 04:05:46;;;;;;;20.40;8.02;;;3.10;1.00;;;;;;5106597;28;20250;-75
2021/12/18 04:08:12;;;;;;;16.13;8.57;;;3.10;1.00;;;;;;5084148;28;20182;-75
2021/12/18 04:10:41;;;;;;;19.90;8.77;;;3.10;1.00;;;;;;5087827;28;20182;-76
2021/12/18 04:13:10;;;;;;;16.92;8.18;;;3.10;1.00;;;;;;5094135;28;20556;-75
2021/12/18 04:15:37;;;;;;;13.27;6.25;;;3.10;1.00;;;;;;5076218;28;20186;-75
2021/12/18 04:18:05;;;;;;;17.27;7.93;;;3.10;1.00;;;;;;5083202;28;20192;-75
2021/12/18 04:20:34;;;;;;;17.08;7.47;;;3.10;1.00;;;;;;5080744;28;20198;-75
2021/12/18 04:23:00;;;;;;;10.15;6.57;;;3.50;1.00;;;;;;5082254;28;20220;-75
2021/12/18 04:25:29;;;;;;;15.13;6.73;;;3.10;1.00;;;;;;5078230;28;20182;-75
2021/12/18 04:27:55;;;;;;;16.60;7.40;;;3.20;1.00;;;;;;5093800;28;20452;-75
2021/12/18 04:30:22;;;;;;;10.90;6.07;;;3.20;1.00;;;;;;5075229;28;20194;-75
2021/12/18 04:32:52;;;;;;;12.52;6.55;;;3.20;1.00;;;;;;5086056;28;20174;-75
2021/12/18 04:35:18;;;;;;;19.00;7.95;;;3.30;1.00;;;;;;5073681;28;20221;-75
2021/12/18 04:37:44;;;;;;;14.80;6.80;;;3.30;1.00;;;;;;5047489;28;1150874;-75
2021/12/18 04:40:10;;;;;;;11.40;6.90;;;3.40;1.00;;;;;;5081371;28;20693;-75
2021/12/18 04:42:36;;;;;;;13.90;7.47;;;3.40;1.00;;;;;;5083065;28;20229;-76
2021/12/18 04:45:05;;;;;;;13.27;6.90;;;3.50;1.00;;;;;;5080110;28;20634;-75
2021/12/18 04:47:35;;;;;;;18.60;7.40;;;3.50;1.00;;;;;;5087786;28;20637;-76
2021/12/18 04:50:05;;;;;;;7.90;5.90;;;3.60;1.00;;;;;;5081598;28;20197;-75
2021/12/18 04:52:31;;;;;;;12.57;6.78;;;3.70;1.00;;;;;;5085399;28;20759;-75
2021/12/18 04:54:56;;;;;;;8.10;5.57;;;3.70;1.00;;;;;;5085927;28;20183;-75
2021/12/18 04:57:22;;;;;;;12.03;5.23;;;3.80;1.00;;;;;;5087657;28;20298;-75
2021/12/18 04:59:53;;;;;;;7.87;5.07;;;3.90;1.00;;;;;;5082490;28;20202;-76
2021/12/18 05:02:22;;;;;;;9.02;5.10;;;3.90;1.00;;;;;;5094040;28;20167;-75
2021/12/18 05:05:05;;;;;;;7.53;4.90;;;3.90;1.00;;;;;;5084965;28;20481;-76
2021/12/18 05:07:35;;;;;;;12.52;5.95;;;3.90;1.00;;;;;;5074092;28;20842;-75
2021/12/18 05:10:11;;;;;;;7.32;5.25;;;4.00;1.00;;;;;;5085411;28;20232;-75
2021/12/18 05:12:41;;;;;;;9.43;5.30;;;4.00;1.00;;;;;;5074705;28;20205;-75
2021/12/18 05:15:07;;;;;;;13.10;6.30;;;4.00;1.00;;;;;;5079475;28;20194;-75
2021/12/18 05:17:33;;;;;;;10.97;5.73;;;4.10;1.00;;;;;;5080735;28;20178;-75
2021/12/18 05:20:05;;;;;;;12.30;6.07;;;4.10;1.00;;;;;;5093999;28;20512;-75
2021/12/18 05:22:31;;;;;;;8.80;5.60;;;4.20;1.00;;;;;;5091448;28;20432;-75
2021/12/18 05:24:58;;;;;;;8.87;5.90;;;4.20;1.00;;;;;;5080235;28;20435;-75
2021/12/18 05:27:30;;;;;;;14.13;6.23;;;4.30;1.00;;;;;;5086640;28;20445;-75
2021/12/18 05:29:56;;;;;;;8.70;5.55;;;4.30;1.00;;;;;;5078351;28;20437;-76
2021/12/18 05:32:21;;;;;;;7.43;4.60;;;4.40;1.00;;;;;;5082011;28;20244;-75
2021/12/18 05:35:06;;;;;;;7.37;4.70;;;4.40;1.00;;;;;;5091279;28;20182;-75
2021/12/18 05:40:25;;;;;;;8.27;5.40;;;4.50;1.00;;;;;;5091461;28;20456;-75
2021/12/18 05:43:07;;;;;;;8.30;5.18;;;4.50;1.00;;;;;;5091499;28;20412;-75
2021/12/18 05:45:33;;;;;;;8.03;5.00;;;4.50;1.00;;;;;;5087277;28;20178;-75
2021/12/18 05:48:00;;;;;;;13.13;4.97;;;;;;;;;;5094691;28;20409;-75
2021/12/18 05:50:29;;;;;;;12.13;5.80;;;4.50;1.00;;;;;;5085788;28;20219;-75
2021/12/18 05:53:00;;;;;;;10.05;5.55;;;4.60;1.00;;;;;;5087175;28;20424;-75
2021/12/18 05:55:30;;;;;;;10.07;6.27;;;4.60;1.00;;;;;;5088011;28;20670;-75
2021/12/18 05:57:56;;;;;;;18.67;6.37;;;4.60;1.00;;;;;;5093740;28;20417;-75
2021/12/18 06:00:28;;;;;;;7.97;5.33;;;4.60;1.00;;;;;;5087440;28;20460;-75
2021/12/18 06:02:54;;;;;;;10.47;6.50;;;4.70;1.00;;;;;;5084306;28;20511;-75
2021/12/18 06:05:22;;;;;;;10.50;6.57;;;4.80;1.00;;;;;;5097719;28;20475;-75
2021/12/18 06:07:58;;;;;;;11.23;6.00;;;4.80;1.00;;;;;;5083700;28;20173;-75
2021/12/18 06:10:29;;;;;;;13.30;6.03;;;4.90;1.00;;;;;;5096254;28;20419;-75
2021/12/18 06:13:16;;;;;;;10.87;7.03;;;4.90;1.00;;;;;;5079653;28;20400;-75
2021/12/18 06:15:42;;;;;;;10.37;5.63;;;5.00;1.00;;;;;;5090407;28;20469;-75
2021/12/18 06:18:08;;;;;;;8.37;5.40;;;5.00;1.00;;;;;;5089624;28;20898;-76
2021/12/18 06:20:34;;;;;;;11.30;5.50;;;5.00;1.00;;;;;;5082139;28;20198;-76
2021/12/18 06:23:04;;;;;;;13.33;6.00;;;5.00;1.00;;;;;;5077242;28;20412;-75
2021/12/18 06:25:30;;;;;;;9.47;6.00;;;5.00;1.00;;;;;;5089080;28;20416;-75
2021/12/18 06:27:56;;;;;;;10.80;6.20;;;;;;;;;;5088649;28;20420;-75
2021/12/18 06:30:22;;;;;;;12.93;5.60;;;5.00;1.00;;;;;;5078211;28;20516;-75
2021/12/18 06:33:05;;;;;;;7.20;5.03;;;5.10;1.00;;;;;;5088791;28;20502;-75
2021/12/18 06:35:31;;;;;;;8.60;4.73;;;5.10;1.00;;;;;;5085289;28;20432;-75
2021/12/18 06:37:58;;;;;;;9.20;5.30;;;5.10;1.00;;;;;;5076322;28;20432;-75
2021/12/18 06:40:24;;;;;;;7.73;5.00;;;5.10;1.00;;;;;;5089868;28;20460;-76
2021/12/18 06:42:59;;;;;;;10.40;5.10;;;5.10;1.00;;;;;;5087406;28;20408;-76
2021/12/18 06:45:24;;;;;;;12.43;6.40;;;5.10;1.00;;;;;;5082361;28;20533;-76
2021/12/18 06:47:50;;;;;;;7.90;5.60;;;5.10;1.00;;;;;;5076105;28;20413;-78
2021/12/18 06:50:23;;;;;;;13.83;5.63;;;5.10;1.00;;;;;;5089742;28;20415;-78
2021/12/18 06:52:48;;;;;;;11.60;5.57;;;5.10;1.00;;;;;;5089293;28;20175;-78
2021/12/18 06:55:15;;;;;;;11.97;5.90;;;5.10;1.00;;;;;;5094263;28;20486;-75
2021/12/18 06:58:28;;;;;;;8.30;4.80;;;5.20;1.00;;;;;;5083883;28;20163;-76
2021/12/18 07:00:59;;;;;;;14.07;5.30;;;5.10;1.00;;;;;;5088691;28;20550;-76
2021/12/18 07:03:25;;;;;;;9.60;5.53;;;5.20;1.00;;;;;;5082985;28;20408;-75
2021/12/18 07:05:59;;;;;;;15.50;6.37;;;5.10;1.00;;;;;;5096646;28;20455;-75
2021/12/18 07:08:25;;;;;;;8.63;5.40;;;5.10;1.00;;;;;;5076718;28;20413;-76
2021/12/18 07:11:10;;;;;;;5.80;4.57;;;5.20;1.00;;;;;;5076473;28;20443;-75
2021/12/18 07:13:47;;;;;;;8.60;4.80;;;5.10;1.00;;;;;;5088798;28;20464;-75
2021/12/18 07:16:28;;;;;;;12.00;5.50;;;5.10;1.00;;;;;;5075986;28;20950;-75
2021/12/18 07:18:54;;;;;;;9.87;5.17;;;5.10;1.00;;;;;;5094541;28;20423;-75
2021/12/18 07:21:22;;;;;;;7.67;5.00;;;5.10;1.00;;;;;;5083958;28;20410;-75
2021/12/18 07:23:48;;;;;;;6.80;5.13;;;5.10;1.00;;;;;;5080859;28;20182;-75
2021/12/18 07:26:23;;;;;;;7.83;5.10;;;5.10;1.00;;;;;;5083823;28;20413;-75
2021/12/18 07:28:48;;;;;;;7.03;4.83;;;5.10;1.00;;;;;;5094917;28;20177;-75
2021/12/18 07:31:14;;;;;;;7.47;5.30;;;5.10;1.00;;;;;;5081918;28;20566;-75
2021/12/18 07:33:42;;;;;;;10.17;5.17;;;5.10;1.00;;;;;;5081549;28;20307;-75
2021/12/18 07:36:17;;;;;;;11.00;5.80;;;5.10;1.00;;;;;;5082299;28;20198;-75
2021/12/18 07:38:47;;;;;;;13.20;5.47;;;5.10;1.00;;;;;;5083092;28;20503;-76
2021/12/18 07:41:13;;;;;;;11.20;5.87;;;5.20;1.00;;;;;;5085041;28;20452;-76
2021/12/18 07:43:53;;;;;;;11.80;6.57;;;5.20;1.00;;;;;;5074087;28;20942;-76
2021/12/18 07:46:18;;;;;;;11.50;5.90;;;5.20;1.00;;;;;;5089005;28;20425;-75
2021/12/18 07:48:45;;;;;;;8.03;5.47;;;;;;;;;;5085504;28;20534;-75
2021/12/18 07:51:12;;;;;;;8.37;6.33;;;5.30;1.00;;;;;;5081680;28;20269;-76
2021/12/18 07:53:38;;;;;;;17.13;5.70;;;5.20;1.00;;;;;;5084631;28;20919;-75
2021/12/18 07:56:04;;;;;;;13.73;6.17;;;5.30;1.00;;;;;;5090507;28;20783;-75
2021/12/18 07:58:36;;;;;;;9.70;6.10;;;5.30;1.00;;;;;;5090167;28;20835;-76
2021/12/18 08:01:03;;;;;;;7.60;5.60;;;5.30;1.00;;;;;;5083167;28;20460;-75
2021/12/18 08:03:29;;;;;;;11.30;5.77;;;5.30;1.00;;;;;;5083391;28;20474;-76
2021/12/18 08:05:55;;;;;;;8.93;5.70;;;5.30;1.00;;;;;;5106947;28;20421;-76
2021/12/18 08:08:23;;;;;;;7.90;4.93;;;5.30;1.00;;;;;;5083797;28;20900;-75
2021/12/18 08:10:59;;;;;;;8.77;6.23;;;5.30;1.00;;;;;;5089782;28;20874;-77
2021/12/18 08:13:29;;;;;;;7.87;6.00;;;5.30;1.00;;;;;;5089447;28;20412;-75
2021/12/18 08:15:54;;;;;;;11.40;6.30;;;5.40;1.00;;;;;;5079132;28;20416;-76
2021/12/18 08:18:20;;;;;;;10.77;6.23;;;5.40;1.00;;;;;;5074713;28;20424;-78
2021/12/18 08:20:47;;;;;;;11.10;5.93;;;5.40;1.00;;;;;;5078629;28;20585;-76
2021/12/18 08:23:13;;;;;;;9.27;5.00;;;5.40;1.00;;;;;;5088750;28;20256;-75
2021/12/18 08:25:39;;;;;;;19.53;6.80;;;5.50;1.00;;;;;;5100990;27;20835;-75
2021/12/18 08:28:17;;;;;;;14.33;6.27;;;5.50;1.00;;;;;;5094493;28;20445;-75
2021/12/18 08:30:47;;;;;;;10.07;6.07;;;5.50;1.00;;;;;;5091731;28;20479;-76
2021/12/18 08:33:28;;;;;;;15.10;5.90;;;5.60;1.00;;;;;;5077989;28;20414;-76
2021/12/18 08:35:54;;;;;;;16.97;6.40;;;5.60;1.00;;;;;;5079059;28;20419;-76
2021/12/18 08:38:20;;;;;;;12.17;5.50;;;5.60;1.00;;;;;;5082955;28;20436;-76
2021/12/18 08:40:46;;;;;;;12.07;6.07;;;5.70;1.00;;;;;;5087621;28;20899;-76
2021/12/18 08:43:23;;;;;;;13.53;6.63;;;5.70;1.00;;;;;;5086000;28;20178;-76
2021/12/18 08:45:49;;;;;;;10.00;5.57;;;5.70;1.00;;;;;;5081396;28;20413;-75
2021/12/18 08:48:15;;;;;;;12.40;5.90;;;5.70;1.00;;;;;;5080641;28;20405;-75
2021/12/18 08:50:41;;;;;;;12.83;6.73;;;5.80;1.00;;;;;;5072765;28;20472;-75
2021/12/18 08:53:10;;;;;;;13.33;7.30;;;5.80;1.00;;;;;;5087229;28;20557;-75
2021/12/18 08:55:36;;;;;;;13.20;6.93;;;5.90;1.00;;;;;;5091515;28;20269;-75
2021/12/18 08:58:11;;;;;;;11.50;6.43;;;5.80;1.00;;;;;;5092877;28;20472;-75
2021/12/18 09:00:41;;;;;;;12.77;6.47;;;5.90;1.00;;;;;;5082539;28;20692;-75
2021/12/18 09:03:11;;;;;;;11.23;6.83;;;5.90;1.00;;;;;;5092234;28;20437;-76
2021/12/18 09:05:47;;;;;;;17.10;7.67;;;6.00;1.00;;;;;;5075654;28;20909;-76
2021/12/18 09:08:23;;;;;;;13.93;7.30;;;6.10;1.00;;;;;;5074017;28;20470;-75
2021/12/18 09:10:49;;;;;;;12.68;7.30;;;6.00;1.00;;;;;;5085453;28;20796;-75
2021/12/18 09:13:17;;;;;;;12.53;7.90;;;6.00;1.00;;;;;;5082150;28;20626;-75
2021/12/18 09:15:53;;;;;;;13.68;7.55;;;6.10;1.00;;;;;;5079587;28;20892;-75
2021/12/18 09:18:19;;;;;;;14.57;8.00;;;6.10;1.00;;;;;;5086966;28;20189;-75
2021/12/18 09:20:53;;;;;;;15.73;7.33;;;6.20;1.00;;;;;;5083434;28;20451;-75
2021/12/18 09:23:21;;;;;;;16.00;7.00;;;6.20;1.00;;;;;;5081437;28;20432;-77
2021/12/18 09:25:47;;;;;;;14.47;8.47;;;6.30;1.00;;;;;;5076688;28;20178;-74
2021/12/18 09:28:17;;;;;;;13.13;7.23;;;6.30;1.00;;;;;;5074532;28;20504;-77
2021/12/18 09:30:42;;;;;;;15.20;7.90;;;6.30;1.00;;;;;;5080189;28;20461;-74
2021/12/18 09:33:13;;;;;;;18.40;7.00;;;6.30;1.00;;;;;;5075620;28;20432;-74
2021/12/18 09:35:40;;;;;;;15.80;7.87;;;6.30;1.00;;;;;;5078734;28;20174;-74
2021/12/18 09:38:06;;;;;;;16.67;8.47;;;6.40;1.00;;;;;;5079941;28;20966;-75
2021/12/18 09:40:32;;;;;;;14.70;7.53;;;6.40;1.00;;;;;;5073407;28;20413;-74
2021/12/18 09:42:58;;;;;;;13.73;7.77;;;6.40;1.00;;;;;;5077002;28;20473;-74
2021/12/18 09:45:37;;;;;;;13.73;7.40;;;6.40;1.00;;;;;;5090787;28;20802;-74
2021/12/18 09:48:05;;;;;;;14.43;8.50;;;6.50;1.00;;;;;;5078492;28;20427;-74
2021/12/18 09:50:34;;;;;;;16.50;7.67;;;6.60;1.00;;;;;;5081405;28;20473;-75
2021/12/18 09:53:06;;;;;;;17.87;8.60;;;6.60;1.00;;;;;;5076309;28;20428;-74
2021/12/18 09:55:32;;;;;;;11.67;6.93;;;6.60;1.00;;;;;;5086369;28;20453;-74
2021/12/18 09:57:57;;;;;;;19.03;8.47;;;6.60;1.00;;;;;;5073684;28;20418;-74
2021/12/18 10:00:29;;;;;;;32.47;8.10;;;6.70;1.00;;;;;;5083909;28;20482;-74
2021/12/18 10:02:55;;;;;;;13.03;7.70;;;6.70;1.00;;;;;;5084276;28;20748;-74
2021/12/18 10:05:25;;;;;;;14.33;7.63;;;6.80;1.00;;;;;;5101192;28;20456;-74
2021/12/18 10:08:08;;;;;;;13.77;7.90;;;6.80;1.00;;;;;;5074061;28;20421;-74
2021/12/18 10:10:36;;;;;;;23.90;7.97;;;6.90;1.00;;;;;;5076777;28;20449;-74
2021/12/18 10:13:08;;;;;;;18.80;8.23;;;6.80;1.00;;;;;;5082838;28;20463;-73
2021/12/18 10:15:35;;;;;;;15.53;7.17;;;6.90;1.00;;;;;;5075532;28;20448;-73
2021/12/18 10:18:19;;;;;;;15.23;7.20;;;7.00;1.00;;;;;;5083588;28;20564;-77
2021/12/18 10:20:47;;;;;;;16.80;8.40;;;6.90;1.00;;;;;;5075458;28;20519;-77
2021/12/18 10:26:47;;;;;;;17.67;7.63;;;6.80;1.00;;;;;;5089849;28;20399;-77
2021/12/18 10:29:35;;;;;;;14.67;7.83;;;6.80;1.00;;;;;;5083872;28;20432;-77
2021/12/18 10:32:14;;;;;;;29.40;7.13;;;6.80;1.00;;;;;;5077536;28;20512;-78
2021/12/18 10:34:41;;;;;;;11.73;7.47;;;6.80;1.00;;;;;;5085931;28;20403;-74
2021/12/18 10:37:12;;;;;;;19.60;8.13;;;6.90;1.00;;;;;;5081954;28;20955;-74
2021/12/18 10:39:55;;;;;;;20.27;7.87;;;6.90;1.00;;;;;;5084720;28;20422;-74
2021/12/18 10:42:45;;;;;;;17.30;7.80;;;7.00;1.00;;;;;;5077452;28;20417;-74
2021/12/18 10:45:23;;;;;;;9.70;5.80;;;7.00;1.00;;;;;;5084163;28;20416;-74
2021/12/18 10:48:05;;;;;;;10.83;6.27;;;7.00;1.00;;;;;;5082316;28;20493;-73
2021/12/18 10:50:42;;;;;;;9.50;5.97;;;7.00;1.00;;;;;;5083382;28;20529;-74
2021/12/18 10:53:19;;;;;;;13.20;6.27;;;7.10;1.00;;;;;;5080484;28;20899;-73
2021/12/18 10:55:48;;;;;;;12.53;6.57;;;7.00;1.00;;;;;;5083662;28;20408;-74
2021/12/18 10:58:36;;;;;;;10.73;6.20;;;7.10;1.00;;;;;;5083520;28;20413;-73
2021/12/18 11:01:14;;;;;;;16.37;6.70;;;7.10;1.00;;;;;;5085732;28;20448;-73
2021/12/18 11:03:43;;;;;;;15.97;6.50;;;7.10;1.00;;;;;;5090621;28;20472;-73
2021/12/18 11:06:32;;;;;;;9.93;6.23;;;7.10;1.00;;;;;;5109608;28;20766;-74
2021/12/18 11:09:10;;;;;;;22.40;6.33;;;7.10;1.00;;;;;;5080910;28;20424;-74
2021/12/18 11:14:47;;;;;;;8.00;5.53;;;7.10;1.00;;;;;;5085050;28;20433;-74
2021/12/18 11:17:16;;;;;;;8.83;5.43;;;7.10;1.00;;;;;;5074455;28;20454;-74
2021/12/18 11:19:59;;;;;;;10.40;5.60;;;7.20;1.00;;;;;;5083406;28;20845;-77
2021/12/18 11:22:25;;;;;;;9.70;5.00;;;;;;;;;;5083139;28;21142;-77
2021/12/18 11:25:01;;;;;;;8.53;5.10;;;7.40;1.00;;;;;;5081378;28;20952;-75
2021/12/18 11:27:28;;;;;;;9.10;5.27;;;7.40;1.00;;;;;;5083534;28;20412;-78
2021/12/18 11:30:07;;;;;;;10.77;6.27;;;7.50;1.00;;;;;;5082252;28;20436;-77
2021/12/18 11:32:40;;;;;;;10.27;5.40;;;7.50;1.00;;;;;;5085528;28;20911;-77
2021/12/18 11:35:13;;;;;;;10.57;4.90;;;7.60;1.00;;;;;;5089390;28;20500;-77
2021/12/18 11:37:55;;;;;;;8.30;5.20;;;7.60;1.00;;;;;;5073795;28;20859;-77
2021/12/18 11:40:30;;;;;;;7.13;4.73;;;7.70;1.00;;;;;;5077351;28;20476;-77
2021/12/18 11:42:57;;;;;;;11.03;5.33;;;7.60;1.00;;;;;;5075458;28;20415;-76
2021/12/18 11:45:34;;;;;;;11.60;6.33;;;7.60;1.00;;;;;;5084171;28;20436;-75
2021/12/18 11:48:01;;;;;;;13.97;5.97;;;7.70;1.00;;;;;;5081586;28;20518;-76
2021/12/18 11:50:34;;;;;;;13.23;6.57;;;7.70;1.00;;;;;;5085444;28;21027;-74
2021/12/18 11:53:05;;;;;;;15.50;5.47;;;7.80;1.00;;;;;;5088708;28;20505;-75
2021/12/18 11:55:49;;;;;;;12.03;5.70;;;7.70;1.00;;;;;;5086493;28;20461;-77
2021/12/18 11:58:33;;;;;;;12.27;4.90;;;7.80;1.00;;;;;;5076537;28;20428;-77
2021/12/18 12:01:03;;;;;;;6.57;4.10;;;7.70;1.00;;;;;;5091895;28;20474;-75
2021/12/18 12:03:35;;;;;;;9.00;4.83;;;7.80;1.00;;;;;;5085111;28;20436;-76
2021/12/18 12:06:28;;;;;;;8.00;4.50;;;7.80;1.00;;;;;;5107690;28;20424;-76
2021/12/18 12:09:14;;;;;;;5.47;3.70;;;7.70;1.00;;;;;;5081632;28;20493;-76
2021/12/18 12:12:05;;;;;;;9.30;4.90;;;7.60;1.00;;;;;;5083009;28;20420;-77
2021/12/18 12:14:32;;;;;;;5.93;4.10;;;7.60;1.00;;;;;;5085830;28;20432;-79
2021/12/18 12:17:05;;;;;;;5.50;3.70;;;7.70;1.00;;;;;;5078306;28;20462;-81
2021/12/18 12:19:51;;;;;;;7.50;3.67;;;7.70;1.00;;;;;;5088226;28;20729;-80
2021/12/18 12:22:38;;;;;;;8.80;4.40;;;7.70;1.00;;;;;;5083217;28;20859;-76
2021/12/18 12:25:07;;;;;;;4.40;2.90;;;7.70;1.00;;;;;;5073611;28;20461;-76
2021/12/18 12:27:38;;;;;;;6.60;3.33;;;7.70;1.00;;;;;;5073492;28;20840;-76
2021/12/18 12:30:27;;;;;;;6.87;3.20;;;7.70;1.00;;;;;;5073392;28;20496;-76
2021/12/18 12:33:02;;;;;;;6.33;3.00;;;7.70;1.00;;;;;;5073445;28;20832;-76
2021/12/18 12:35:27;;;;;;;3.30;2.67;;;7.70;1.00;;;;;;5082357;28;20444;-76
2021/12/18 12:37:54;;;;;;;6.50;3.70;;;7.70;1.00;;;;;;5074119;28;20485;-76
2021/12/18 12:40:32;;;;;;;6.60;3.43;;;7.70;1.00;;;;;;5073653;28;20507;-76
2021/12/18 12:43:15;;;;;;;4.93;3.80;;;7.70;1.00;;;;;;5081047;28;20408;-76
2021/12/18 12:45:43;;;;;;;4.47;3.40;;;7.70;1.00;;;;;;5092794;28;20412;-76
2021/12/18 12:48:09;;;;;;;6.13;3.10;;;7.70;1.00;;;;;;5093015;28;20423;-76
2021/12/18 12:50:36;;;;;;;8.40;3.50;;;;;;;;;;5092936;28;20460;-76
2021/12/18 12:53:07;;;;;;;5.93;2.77;;;7.70;1.00;;;;;;5085109;28;20175;-80
2021/12/18 12:55:47;;;;;;;3.53;2.63;;;7.70;1.00;;;;;;5075560;28;20930;-79
2021/12/18 12:58:24;;;;;;;4.77;3.10;;;7.60;1.00;;;;;;5072595;28;20421;-79
2021/12/18 13:01:01;;;;;;;5.97;2.60;;;7.60;1.00;;;;;;5072666;28;20429;-79
2021/12/18 13:03:37;;;;;;;3.07;2.23;;;7.60;1.00;;;;;;5072656;28;20481;-79
2021/12/18 13:06:19;;;;;;;2.40;2.20;;;7.60;1.00;;;;;;5091742;28;20431;-79
2021/12/18 13:08:48;;;;;;;2.23;2.00;;;7.50;1.00;;;;;;5093069;28;20421;-79
2021/12/18 13:11:20;;;;;;;3.03;2.53;;;7.50;1.00;;;;;;5092577;28;20467;-79
2021/12/18 13:13:46;;;;;;;2.67;2.47;;;7.60;1.00;;;;;;5090260;28;20421;-79
2021/12/18 13:16:15;;;;;;;3.23;2.60;;;7.50;1.00;;;;;;5071409;28;20429;-80
2021/12/18 13:18:43;;;;;;;3.07;2.40;;;7.50;1.00;;;;;;5072519;28;20920;-79
2021/12/18 13:21:23;;;;;;;3.97;2.43;;;7.50;1.00;;;;;;5072538;28;20475;-79
2021/12/18 13:23:59;;;;;;;3.30;2.50;;;7.50;1.00;;;;;;5073075;28;20421;-79
2021/12/18 13:26:46;;;;;;;4.03;2.70;;;7.50;1.00;;;;;;5072260;28;20428;-80
2021/12/18 13:29:15;;;;;;;3.40;2.90;;;7.50;1.00;;;;;;5072186;28;20919;-80
2021/12/18 13:31:52;;;;;;;4.13;2.90;;;7.50;1.00;;;;;;5072355;28;20429;-80
2021/12/18 13:34:27;;;;;;;3.03;2.73;;;7.50;1.00;;;;;;5072564;28;20417;-79
2021/12/18 13:36:59;;;;;;;4.40;3.03;;;7.50;1.00;;;;;;5072151;28;20828;-79
2021/12/18 13:39:29;;;;;;;4.03;2.90;;;7.50;1.00;;;;;;5072541;28;20904;-76
2021/12/18 13:42:02;;;;;;;3.40;3.10;;;7.50;1.00;;;;;;5072214;28;20428;-76
2021/12/18 13:44:51;;;;;;;4.53;3.87;;;7.50;1.00;;;;;;5072491;28;20421;-76
2021/12/18 13:47:21;;;;;;;4.53;3.00;;;7.40;1.00;;;;;;5072215;28;20479;-76
2021/12/18 13:49:48;;;;;;;6.33;3.10;;;7.40;1.00;;;;;;5076880;28;20459;-76
2021/12/18 13:52:32;;;;;;;4.73;3.40;;;7.40;1.00;;;;;;5080518;28;20416;-76
2021/12/18 13:54:58;;;;;;;5.30;3.50;;;7.40;1.00;;;;;;5075042;28;20432;-76
2021/12/18 13:57:23;;;;;;;4.00;3.43;;;7.40;1.00;;;;;;5078516;28;20566;-76
2021/12/18 13:59:57;;;;;;;8.20;3.33;;;7.40;1.00;;;;;;5074638;28;20602;-76
2021/12/18 14:02:23;;;;;;;5.10;3.50;;;7.40;1.00;;;;;;5076117;28;20187;-76
2021/12/18 14:04:49;;;;;;;6.63;3.10;;;;;;;;;;5082967;28;20427;-76
2021/12/18 14:07:19;;;;;;;3.50;3.00;;;7.30;1.00;;;;;;5083869;28;20359;-76
2021/12/18 14:09:49;;;;;;;4.67;3.10;;;7.30;1.00;;;;;;5080262;28;20822;-76
2021/12/18 14:12:25;;;;;;;3.23;2.90;;;7.30;1.00;;;;;;5093753;28;20420;-76
2021/12/18 14:15:15;;;;;;;3.83;3.10;;;7.30;1.00;;;;;;5078671;28;20415;-76
2021/12/18 14:17:41;;;;;;;7.93;2.97;;;7.30;1.00;;;;;;5096870;28;20417;-76